createdAt,value
2018-06-21T00:01:06.914Z,7.13
2018-06-21T00:03:47.203Z,4.50
2018-06-21T00:06:21.725Z,6.33
2018-06-21T00:09:01.225Z,5.53
2018-06-21T00:11:41.704Z,5.80
2018-06-21T00:14:18.913Z,5.67
2018-06-21T00:16:53.896Z,5.10
2018-06-21T00:19:27.375Z,4.80
2018-06-21T00:22:00.086Z,5.33
2018-06-21T00:24:32.800Z,4.53
2018-06-21T00:27:11.771Z,5.23
2018-06-21T00:29:49.135Z,5.20
2018-06-21T00:32:27.309Z,6.62
2018-06-21T00:35:00.449Z,4.93
2018-06-21T00:37:48.917Z,5.97
2018-06-21T00:40:29.399Z,5.30
2018-06-21T00:43:02.272Z,5.20
2018-06-21T00:45:34.964Z,4.40
2018-06-21T00:48:09.617Z,5.43
2018-06-21T00:50:47.466Z,7.37
2018-06-21T00:53:21.946Z,5.90
2018-06-21T00:56:13.485Z,5.53
2018-06-21T00:58:48.079Z,6.70
2018-06-21T01:01:22.325Z,5.00
2018-06-21T01:03:54.905Z,5.77
2018-06-21T01:06:28.535Z,6.50
2018-06-21T01:09:08.654Z,5.60
2018-06-21T01:11:46.341Z,7.53
2018-06-21T01:14:25.577Z,5.27
2018-06-21T01:16:58.349Z,6.03
2018-06-21T01:19:31.910Z,8.77
2018-06-21T01:22:10.136Z,7.67
2018-06-21T01:24:48.611Z,6.13
2018-06-21T01:27:26.757Z,5.40
2018-06-21T01:30:08.257Z,6.07
2018-06-21T01:32:46.329Z,7.13
2018-06-21T01:35:24.734Z,5.17
2018-06-21T01:38:07.361Z,6.07
2018-06-21T01:40:39.925Z,7.33
2018-06-21T01:43:12.312Z,9.37
2018-06-21T01:45:50.769Z,6.30
2018-06-21T01:48:25.320Z,7.80
2018-06-21T01:50:57.836Z,9.53
2018-06-21T01:53:31.257Z,7.27
2018-06-21T01:56:04.931Z,8.80
2018-06-21T01:58:42.365Z,8.93
2018-06-21T02:01:16.021Z,9.00
2018-06-21T02:03:49.312Z,8.68
2018-06-21T02:06:25.588Z,6.67
2018-06-21T02:08:58.613Z,9.00
2018-06-21T02:11:36.509Z,10.73
2018-06-21T02:14:09.111Z,10.03
2018-06-21T02:16:43.045Z,9.70
2018-06-21T02:19:15.603Z,12.20
2018-06-21T02:21:48.199Z,11.57
2018-06-21T02:24:29.205Z,9.97
2018-06-21T02:27:05.596Z,7.30
2018-06-21T02:29:39.673Z,8.57
2018-06-21T02:32:12.593Z,11.83
2018-06-21T02:34:45.189Z,7.93
2018-06-21T02:37:17.801Z,12.00
2018-06-21T02:39:51.729Z,12.70
2018-06-21T02:42:30.490Z,9.27
2018-06-21T02:45:04.546Z,12.17
2018-06-21T02:47:38.309Z,9.83
2018-06-21T02:50:16.768Z,8.65
2018-06-21T02:52:54.748Z,8.80
2018-06-21T02:55:29.669Z,9.40
2018-06-21T02:58:02.960Z,11.57
2018-06-21T03:00:40.756Z,14.30
2018-06-21T03:03:15.862Z,12.90
2018-06-21T03:05:48.588Z,9.83
2018-06-21T03:08:29.436Z,14.03
2018-06-21T03:11:08.297Z,16.13
2018-06-21T03:13:45.765Z,14.10
2018-06-21T03:16:23.988Z,12.70
2018-06-21T03:18:57.913Z,13.70
2018-06-21T03:21:30.665Z,15.03
2018-06-21T03:24:08.418Z,11.03
2018-06-21T03:26:41.176Z,11.90
2018-06-21T03:29:13.593Z,11.17
2018-06-21T03:31:51.947Z,14.20
2018-06-21T03:34:31.739Z,12.93
2018-06-21T03:37:08.957Z,11.13
2018-06-21T03:39:41.930Z,11.63
2018-06-21T03:42:15.442Z,9.13
2018-06-21T03:44:47.745Z,10.30
2018-06-21T03:47:20.059Z,13.40
2018-06-21T03:49:53.818Z,11.60
2018-06-21T03:52:26.094Z,10.27
2018-06-21T03:54:58.429Z,12.70
2018-06-21T03:57:31.595Z,11.07
2018-06-21T04:00:06.712Z,13.30
2018-06-21T04:02:39.331Z,14.67
2018-06-21T04:05:13.653Z,12.40
2018-06-21T04:07:46.863Z,10.73
2018-06-21T04:10:25.439Z,14.33
2018-06-21T04:13:03.417Z,10.00
2018-06-21T04:15:40.851Z,9.83
2018-06-21T04:18:14.491Z,12.70
2018-06-21T04:20:47.528Z,10.53
2018-06-21T04:23:25.707Z,11.03
2018-06-21T04:26:03.163Z,12.60
2018-06-21T04:28:37.499Z,11.50
2018-06-21T04:31:09.805Z,15.13
2018-06-21T04:33:48.436Z,12.07
2018-06-21T04:36:26.153Z,11.40
2018-06-21T04:39:06.569Z,12.00
2018-06-21T04:41:39.905Z,10.00
2018-06-21T04:44:12.225Z,10.77
2018-06-21T04:46:49.421Z,8.80
2018-06-21T04:49:27.163Z,9.50
2018-06-21T04:51:59.400Z,8.50
2018-06-21T04:54:39.790Z,10.40
2018-06-21T04:57:19.462Z,12.87
2018-06-21T04:59:57.667Z,13.27
2018-06-21T05:02:31.369Z,12.43
2018-06-21T05:05:05.148Z,11.50
2018-06-21T05:07:43.724Z,19.27
2018-06-21T05:10:17.497Z,14.27
2018-06-21T05:12:50.093Z,12.63
2018-06-21T05:15:28.089Z,16.80
2018-06-21T05:18:09.172Z,12.60
2018-06-21T05:20:47.460Z,15.13
2018-06-21T05:23:20.041Z,17.90
2018-06-21T05:25:52.872Z,14.60
2018-06-21T05:28:27.048Z,17.10
2018-06-21T05:31:00.433Z,19.80
2018-06-21T05:33:39.570Z,22.17
2018-06-21T05:36:16.867Z,21.33
2018-06-21T05:38:54.895Z,21.07
2018-06-21T05:41:36.016Z,19.77
2018-06-21T05:44:08.413Z,22.83
2018-06-21T05:46:41.782Z,21.50
2018-06-21T05:49:20.188Z,23.00
2018-06-21T05:51:52.844Z,27.23
2018-06-21T05:54:25.547Z,28.33
2018-06-21T05:56:58.380Z,27.90
2018-06-21T05:59:30.768Z,28.60
2018-06-21T06:02:09.274Z,31.43
2018-06-21T06:04:47.185Z,33.63
2018-06-21T06:07:19.730Z,34.03
2018-06-21T06:09:55.229Z,37.30
2018-06-21T06:12:30.439Z,42.67
2018-06-21T06:15:06.997Z,46.10
2018-06-21T06:17:45.760Z,45.67
2018-06-21T06:20:24.166Z,50.83
2018-06-21T06:22:56.589Z,52.47
2018-06-21T06:25:34.901Z,53.40
2018-06-21T06:28:13.139Z,57.23
2018-06-21T06:30:46.816Z,56.57
2018-06-21T06:33:19.576Z,58.13
2018-06-21T06:35:57.425Z,65.93
2018-06-21T06:38:36.934Z,49.55
2018-06-21T06:41:16.407Z,40.50
2018-06-21T06:43:50.608Z,38.97
2018-06-21T06:46:23.374Z,33.87
2018-06-21T06:48:56.310Z,38.03
2018-06-21T06:51:29.690Z,36.00
2018-06-21T06:54:08.433Z,34.83
2018-06-21T06:56:46.755Z,33.93
2018-06-21T06:59:35.458Z,37.13
2018-06-21T07:02:13.286Z,33.53
2018-06-21T07:04:46.923Z,32.93
2018-06-21T07:07:22.981Z,34.93
2018-06-21T07:10:02.129Z,30.07
2018-06-21T07:12:41.143Z,31.23
2018-06-21T07:15:17.242Z,30.03
2018-06-21T07:17:51.665Z,29.83
2018-06-21T07:20:26.443Z,28.73
2018-06-21T07:22:59.839Z,26.47
2018-06-21T07:25:38.562Z,27.50
2018-06-21T07:28:17.574Z,28.13
2018-06-21T07:30:53.251Z,26.30
2018-06-21T07:33:26.534Z,26.37
2018-06-21T07:36:05.154Z,20.77
2018-06-21T07:38:40.722Z,21.47
2018-06-21T07:41:14.152Z,22.10
2018-06-21T07:43:53.282Z,19.83
2018-06-21T07:46:26.100Z,18.90
2018-06-21T07:48:59.082Z,19.23
2018-06-21T07:51:37.521Z,17.57
2018-06-21T07:54:15.459Z,16.70
2018-06-21T07:56:48.300Z,12.33
2018-06-21T07:59:20.816Z,13.93
2018-06-21T08:02:00.061Z,14.63
2018-06-21T08:04:39.918Z,12.97
2018-06-21T08:07:18.380Z,12.07
2018-06-21T08:09:57.471Z,11.83
2018-06-21T08:12:37.365Z,9.63
2018-06-21T08:15:16.456Z,9.95
2018-06-21T08:17:57.388Z,10.33
2018-06-21T08:20:29.801Z,9.33
2018-06-21T08:23:03.095Z,6.57
2018-06-21T08:25:50.210Z,12.43
2018-06-21T08:28:28.190Z,7.57
2018-06-21T08:31:01.577Z,7.67
2018-06-21T08:33:34.415Z,7.43
2018-06-21T08:36:12.115Z,7.17
2018-06-21T08:38:47.070Z,6.87
2018-06-21T08:41:21.186Z,9.77
2018-06-21T08:43:53.683Z,6.70
2018-06-21T08:46:26.679Z,7.90
2018-06-21T08:49:02.839Z,5.17
2018-06-21T08:51:43.083Z,5.00
2018-06-21T08:54:16.594Z,8.60
2018-06-21T08:56:50.404Z,7.60
2018-06-21T08:59:28.041Z,7.30
2018-06-21T09:02:06.876Z,7.90
2018-06-21T09:04:46.778Z,6.63
2018-06-21T09:07:26.054Z,7.10
2018-06-21T09:10:04.585Z,6.43
2018-06-21T09:12:45.468Z,6.90
2018-06-21T09:15:19.677Z,4.90
2018-06-21T09:17:55.462Z,6.80
2018-06-21T09:47:41.785Z,8.15
2018-06-21T09:50:20.312Z,5.27
2018-06-21T09:52:54.376Z,7.83
2018-06-21T09:55:32.981Z,9.83
2018-06-21T09:58:23.556Z,5.73
2018-06-21T10:01:03.168Z,5.75
2018-06-21T10:03:36.116Z,8.43
2018-06-21T10:06:10.979Z,6.07
2018-06-21T10:08:43.925Z,4.40
2018-06-21T10:11:19.328Z,4.53
2018-06-21T10:13:58.629Z,7.90
2018-06-21T10:16:32.166Z,5.57
2018-06-21T10:19:05.494Z,10.03
2018-06-21T10:21:41.415Z,6.27
2018-06-21T10:24:15.260Z,6.93
2018-06-21T10:26:51.649Z,6.57
2018-06-21T10:29:24.931Z,5.40
2018-06-21T10:32:02.004Z,6.77
2018-06-21T10:34:35.772Z,6.60
2018-06-21T10:37:12.040Z,6.73
2018-06-21T10:39:45.212Z,7.90
2018-06-21T10:42:19.221Z,7.30
2018-06-21T10:44:56.084Z,4.60
2018-06-21T10:47:28.814Z,9.13
2018-06-21T10:50:01.303Z,6.87
2018-06-21T10:52:34.212Z,5.10
2018-06-21T10:55:09.581Z,8.27
2018-06-21T10:57:44.177Z,8.00
2018-06-21T11:00:20.257Z,6.57
2018-06-21T11:02:55.069Z,5.13
2018-06-21T11:05:30.135Z,3.40
2018-06-21T11:08:03.842Z,5.17
2018-06-21T11:10:37.442Z,6.93
2018-06-21T11:13:13.828Z,6.17
2018-06-21T11:15:50.067Z,7.33
2018-06-21T11:18:24.683Z,11.80
2018-06-21T11:20:59.293Z,6.83
2018-06-21T11:23:36.425Z,4.47
2018-06-21T11:26:11.180Z,5.83
2018-06-21T11:28:43.934Z,5.30
2018-06-21T11:31:18.056Z,5.60
2018-06-21T11:33:55.157Z,5.17
2018-06-21T11:36:30.680Z,5.82
2018-06-21T11:39:12.855Z,7.90
2018-06-21T11:41:54.506Z,3.57
2018-06-21T11:44:30.424Z,4.57
2018-06-21T11:47:06.356Z,8.13
2018-06-21T11:49:41.021Z,5.77
2018-06-21T11:52:15.973Z,4.70
2018-06-21T11:54:52.286Z,3.93
2018-06-21T11:57:27.948Z,10.27
2018-06-21T12:00:08.773Z,7.20
2018-06-21T12:02:46.924Z,8.20
2018-06-21T12:05:26.607Z,4.37
2018-06-21T12:08:01.099Z,5.00
2018-06-21T12:10:35.011Z,6.60
2018-06-21T12:13:08.615Z,10.17
2018-06-21T12:15:42.639Z,3.73
2018-06-21T12:18:17.544Z,6.57
2018-06-21T12:21:01.158Z,4.40
2018-06-21T12:23:36.458Z,6.53
2018-06-21T12:26:13.187Z,9.13
2018-06-21T12:28:48.094Z,7.93
2018-06-21T12:31:25.217Z,4.47
2018-06-21T12:33:59.487Z,6.10
2018-06-21T12:36:35.808Z,6.93
2018-06-21T12:39:10.251Z,10.53
2018-06-21T12:41:44.055Z,5.13
2018-06-21T12:44:17.403Z,6.07
2018-06-21T12:46:56.457Z,5.73
2018-06-21T12:49:30.176Z,5.47
2018-06-21T12:52:06.921Z,5.17
2018-06-21T12:54:44.812Z,7.63
2018-06-21T12:57:17.401Z,8.23
2018-06-21T12:59:50.172Z,4.30
2018-06-21T13:02:24.026Z,6.73
2018-06-21T13:04:58.531Z,7.27
2018-06-21T13:07:32.535Z,7.73
2018-06-21T13:10:30.346Z,6.47
2018-06-21T13:13:22.736Z,7.90
2018-06-21T13:15:59.136Z,7.07
2018-06-21T13:18:31.825Z,6.70
2018-06-21T13:21:10.034Z,8.67
2018-06-21T13:23:46.916Z,8.63
2018-06-21T13:26:22.705Z,6.47
2018-06-21T13:29:01.234Z,4.27
2018-06-21T13:31:35.755Z,5.33
2018-06-21T13:34:09.964Z,9.20
2018-06-21T13:36:43.192Z,6.55
2018-06-21T13:39:17.800Z,6.40
2018-06-21T13:41:56.730Z,6.95
2018-06-21T13:44:35.878Z,4.80
2018-06-21T13:47:14.828Z,5.83
2018-06-21T13:49:54.276Z,6.37
2018-06-21T13:52:27.650Z,8.20
2018-06-21T13:55:05.613Z,5.10
2018-06-21T13:57:44.824Z,6.33
2018-06-21T14:00:18.705Z,6.97
2018-06-21T14:02:52.348Z,6.67
2018-06-21T14:05:25.886Z,8.43
2018-06-21T14:08:05.821Z,4.40
2018-06-21T14:10:41.288Z,12.73
2018-06-21T14:13:20.746Z,3.40
2018-06-21T14:15:58.781Z,8.13
2018-06-21T14:18:38.129Z,7.67
2018-06-21T14:21:13.943Z,5.27
2018-06-21T14:23:51.742Z,8.67
2018-06-21T14:26:28.428Z,7.47
2018-06-21T14:29:09.925Z,6.97
2018-06-21T14:31:44.183Z,6.10
2018-06-21T14:34:22.028Z,5.73
2018-06-21T14:36:56.732Z,4.53
2018-06-21T14:39:33.687Z,7.90
2018-06-21T14:42:15.984Z,8.63
2018-06-21T14:44:53.594Z,5.63
2018-06-21T14:47:26.101Z,7.53
2018-06-21T14:50:00.748Z,8.27
2018-06-21T14:52:35.557Z,5.23
2018-06-21T14:55:11.728Z,8.20
2018-06-21T14:57:45.672Z,7.00
2018-06-21T15:00:59.453Z,7.80
2018-06-21T15:03:34.606Z,5.77
2018-06-21T15:06:12.799Z,6.13
2018-06-21T15:08:45.436Z,4.53
2018-06-21T15:11:21.332Z,6.33
2018-06-21T15:13:56.300Z,6.00
2018-06-21T15:16:29.205Z,7.90
2018-06-21T15:19:06.062Z,3.33
2018-06-21T15:21:40.389Z,8.60
2018-06-21T15:24:15.218Z,10.90
2018-06-21T15:26:48.316Z,7.55
2018-06-21T15:29:21.794Z,7.33
2018-06-21T15:31:56.787Z,6.60
2018-06-21T15:34:30.486Z,5.30
2018-06-21T15:37:13.104Z,4.50
2018-06-21T15:39:45.617Z,5.27
2018-06-21T15:42:18.285Z,4.07
2018-06-21T15:44:52.308Z,4.13
2018-06-21T15:47:35.835Z,5.43
2018-06-21T15:50:17.013Z,6.43
2018-06-21T15:52:53.948Z,5.70
2018-06-21T15:55:28.962Z,7.87
2018-06-21T15:58:04.939Z,8.23
2018-06-21T16:00:40.947Z,8.30
2018-06-21T16:03:16.902Z,8.30
2018-06-21T16:05:53.047Z,7.57
2018-06-21T16:08:26.620Z,6.80
2018-06-21T16:11:07.871Z,9.87
2018-06-21T16:13:41.543Z,4.10
2018-06-21T16:16:22.029Z,5.07
2018-06-21T16:18:59.677Z,8.07
2018-06-21T16:21:39.860Z,4.53
2018-06-21T16:24:16.466Z,10.10
2018-06-21T16:26:49.110Z,5.60
2018-06-21T16:29:24.034Z,8.00
2018-06-21T16:31:56.815Z,9.10
2018-06-21T16:34:40.104Z,4.13
2018-06-21T16:37:16.937Z,4.87
2018-06-21T16:39:51.741Z,3.23
2018-06-21T16:42:26.756Z,7.13
2018-06-21T16:45:05.226Z,3.43
2018-06-21T16:47:42.561Z,4.80
2018-06-21T16:50:18.759Z,6.17
2018-06-21T16:52:54.645Z,5.53
2018-06-21T16:55:30.835Z,3.10
2018-06-21T16:58:07.473Z,4.83
2018-06-21T17:00:44.801Z,5.77
2018-06-21T17:03:25.804Z,6.17
2018-06-21T17:06:02.378Z,5.70
2018-06-21T17:08:42.972Z,5.00
2018-06-21T17:11:21.319Z,7.50
2018-06-21T17:13:55.136Z,6.73
2018-06-21T17:16:30.240Z,3.53
2018-06-21T17:19:04.017Z,5.53
2018-06-21T17:21:36.572Z,4.57
2018-06-21T17:24:10.790Z,6.78
2018-06-21T17:26:45.621Z,4.73
2018-06-21T17:29:25.576Z,4.20
2018-06-21T17:32:03.148Z,6.07
2018-06-21T17:34:40.457Z,6.67
2018-06-21T17:37:18.191Z,4.80
2018-06-21T17:39:54.990Z,4.97
2018-06-21T17:42:32.756Z,7.23
2018-06-21T17:45:07.055Z,11.90
2018-06-21T17:47:44.621Z,5.50
2018-06-21T17:50:24.670Z,8.53
2018-06-21T17:52:58.695Z,2.57
2018-06-21T17:55:36.055Z,7.70
2018-06-21T17:58:10.872Z,4.33
2018-06-21T18:00:45.754Z,5.90
2018-06-21T18:03:26.614Z,5.40
2018-06-21T18:06:02.279Z,3.20
2018-06-21T18:08:36.340Z,5.73
2018-06-21T18:11:10.532Z,7.03
2018-06-21T18:13:44.965Z,6.87
2018-06-21T18:16:33.748Z,6.97
2018-06-21T18:19:09.051Z,5.07
2018-06-21T18:21:42.170Z,5.50
2018-06-21T18:24:24.842Z,6.40
2018-06-21T18:26:57.743Z,6.70
2018-06-21T18:29:34.024Z,8.53
2018-06-21T18:32:10.519Z,7.03
2018-06-21T18:34:49.405Z,9.00
2018-06-21T18:37:25.594Z,4.53
2018-06-21T18:40:00.119Z,6.07
2018-06-21T18:42:35.968Z,7.23
2018-06-21T18:45:19.773Z,6.30
2018-06-21T18:47:54.170Z,6.47
2018-06-21T18:50:28.363Z,6.10
2018-06-21T18:53:03.984Z,10.30
2018-06-21T18:55:37.455Z,5.90
2018-06-21T18:58:14.656Z,6.23
2018-06-21T19:00:54.246Z,4.07
2018-06-21T19:03:30.574Z,4.80
2018-06-21T19:07:28.827Z,9.80
2018-06-21T19:10:09.652Z,6.53
2018-06-21T19:12:45.106Z,7.23
2018-06-21T19:15:26.719Z,5.37
2018-06-21T19:18:13.655Z,7.23
2018-06-21T19:20:48.572Z,6.47
2018-06-21T19:23:28.690Z,6.37
2018-06-21T19:26:04.043Z,8.07
2018-06-21T19:28:55.583Z,3.30
2018-06-21T19:31:33.289Z,5.37
2018-06-21T19:34:09.081Z,7.13
2018-06-21T19:36:47.925Z,7.55
2018-06-21T19:39:28.244Z,4.83
2018-06-21T19:42:06.992Z,6.20
2018-06-21T19:44:46.849Z,5.97
2018-06-21T19:47:26.974Z,9.50
2018-06-21T19:50:01.912Z,10.00
2018-06-21T19:52:35.483Z,7.57
2018-06-21T19:55:09.095Z,6.87
2018-06-21T19:57:49.595Z,8.43
2018-06-21T20:00:27.195Z,8.70
2018-06-21T20:03:07.016Z,7.03
2018-06-21T20:05:46.612Z,9.20
2018-06-21T20:08:29.858Z,6.60
2018-06-21T20:11:14.034Z,10.13
2018-06-21T20:13:50.956Z,8.67
2018-06-21T20:16:32.341Z,8.23
2018-06-21T20:19:45.778Z,6.63
2018-06-21T20:22:31.658Z,6.63
2018-06-21T20:25:09.756Z,6.57
2018-06-21T20:27:46.330Z,7.37
2018-06-21T20:30:25.621Z,13.60
2018-06-21T20:33:03.114Z,5.13
2018-06-21T20:35:40.249Z,10.03
2018-06-21T20:38:22.689Z,10.67
2018-06-21T20:41:00.369Z,6.80
2018-06-21T20:43:43.833Z,11.80
2018-06-21T20:46:25.513Z,6.57
2018-06-21T20:49:07.460Z,5.77
2018-06-21T20:51:44.500Z,8.20
2018-06-21T20:54:32.710Z,6.43
2018-06-21T20:57:25.612Z,9.60
2018-06-21T21:00:15.981Z,13.77
2018-06-21T21:02:53.989Z,8.33
2018-06-21T21:05:37.067Z,6.23
2018-06-21T21:08:27.728Z,7.67
2018-06-21T21:11:08.584Z,6.57
2018-06-21T21:14:03.096Z,6.73
2018-06-21T21:16:39.225Z,8.30
2018-06-21T21:19:21.809Z,10.00
2018-06-21T21:22:17.410Z,10.23
2018-06-21T21:25:00.110Z,8.50
2018-06-21T21:27:36.809Z,7.57
2018-06-21T21:30:20.760Z,8.23
2018-06-21T21:32:58.789Z,9.45
2018-06-21T21:35:31.353Z,7.13
2018-06-21T21:38:08.713Z,6.47
2018-06-21T21:40:53.537Z,9.30
2018-06-21T21:43:38.312Z,9.27
2018-06-21T21:46:12.190Z,11.10
2018-06-21T21:48:49.344Z,9.83
2018-06-21T21:51:25.303Z,8.70
2018-06-21T21:54:00.497Z,8.90
2018-06-21T21:56:41.678Z,8.97
2018-06-21T21:59:16.010Z,15.83
2018-06-21T22:01:50.370Z,10.75
2018-06-21T22:04:29.804Z,13.48
2018-06-21T22:07:03.746Z,10.17
2018-06-21T22:09:39.542Z,8.57
2018-06-21T22:12:18.800Z,10.30
2018-06-21T22:14:56.710Z,9.93
2018-06-21T22:17:33.456Z,8.77
2018-06-21T22:20:09.033Z,11.50
2018-06-21T22:22:41.519Z,9.60
2018-06-21T22:25:20.132Z,10.30
2018-06-21T22:27:57.761Z,7.37
2018-06-21T22:30:30.632Z,11.67
2018-06-21T22:33:03.472Z,10.77
2018-06-21T22:35:39.939Z,18.13
2018-06-21T22:38:21.490Z,10.13
2018-06-21T22:41:07.337Z,13.43
2018-06-21T22:43:44.681Z,8.40
2018-06-21T22:46:21.850Z,19.50
2018-06-21T22:48:58.278Z,10.00
2018-06-21T22:51:35.569Z,10.10
2018-06-21T22:54:09.643Z,11.50
2018-06-21T22:56:52.726Z,10.37
2018-06-21T22:59:29.827Z,10.07
2018-06-21T23:02:05.022Z,8.27
2018-06-21T23:04:39.725Z,14.20
2018-06-21T23:07:17.325Z,11.47
2018-06-21T23:09:53.352Z,12.03
2018-06-21T23:12:30.070Z,7.67
2018-06-21T23:15:09.866Z,9.47
2018-06-21T23:17:45.472Z,13.90
2018-06-21T23:20:19.458Z,12.55
2018-06-21T23:22:54.657Z,11.20
2018-06-21T23:25:30.591Z,12.53
2018-06-21T23:28:04.588Z,11.03
2018-06-21T23:30:37.340Z,14.37
2018-06-21T23:33:17.608Z,16.13
2018-06-21T23:35:53.812Z,6.60
2018-06-21T23:38:29.020Z,13.00
2018-06-21T23:41:02.261Z,13.80
2018-06-21T23:43:34.817Z,11.97
2018-06-21T23:46:08.984Z,11.47
2018-06-21T23:48:42.145Z,15.23
2018-06-21T23:51:15.316Z,12.77
2018-06-21T23:53:48.929Z,10.52
2018-06-21T23:56:23.680Z,13.37
2018-06-21T23:58:59.420Z,12.10
